sensor_id;sensor_type;location;lat;lon;timestamp;P1;durP1;ratioP1;P2;durP2;ratioP2
33104;SDS011;19476;51.448;6.674;2023-03-01T00:01:00;5.68;;;3.03;;
33104;SDS011;19476;51.448;6.674;2023-03-01T00:03:27;5.68;;;3.25;;
33104;SDS011;19476;51.448;6.674;2023-03-01T00:05:53;5.82;;;3.40;;
33104;SDS011;19476;51.448;6.674;2023-03-01T00:08:19;6.65;;;3.28;;
33104;SDS011;19476;51.448;6.674;2023-03-01T00:10:44;6.63;;;3.20;;
33104;SDS011;19476;51.448;6.674;2023-03-01T00:13:10;6.80;;;3.60;;
33104;SDS011;19476;51.448;6.674;2023-03-01T00:15:39;5.95;;;3.05;;
33104;SDS011;19476;51.448;6.674;2023-03-01T00:18:06;6.70;;;3.03;;
33104;SDS011;19476;51.448;6.674;2023-03-01T00:20:33;5.93;;;2.67;;
33104;SDS011;19476;51.448;6.674;2023-03-01T00:22:59;5.28;;;3.10;;
33104;SDS011;19476;51.448;6.674;2023-03-01T00:25:25;6.13;;;3.03;;
33104;SDS011;19476;51.448;6.674;2023-03-01T00:27:50;5.60;;;3.22;;
33104;SDS011;19476;51.448;6.674;2023-03-01T00:30:16;5.75;;;3.67;;
33104;SDS011;19476;51.448;6.674;2023-03-01T00:32:42;6.10;;;3.67;;
33104;SDS011;19476;51.448;6.674;2023-03-01T00:35:07;6.55;;;3.22;;
33104;SDS011;19476;51.448;6.674;2023-03-01T00:37:33;6.13;;;3.20;;
33104;SDS011;19476;51.448;6.674;2023-03-01T00:39:59;5.32;;;3.03;;
33104;SDS011;19476;51.448;6.674;2023-03-01T00:42:24;5.28;;;3.50;;
33104;SDS011;19476;51.448;6.674;2023-03-01T00:44:50;5.93;;;3.42;;
33104;SDS011;19476;51.448;6.674;2023-03-01T00:47:16;4.53;;;2.92;;
33104;SDS011;19476;51.448;6.674;2023-03-01T00:49:41;8.65;;;3.08;;
33104;SDS011;19476;51.448;6.674;2023-03-01T00:52:07;5.45;;;3.67;;
33104;SDS011;19476;51.448;6.674;2023-03-01T00:54:33;5.72;;;3.40;;
33104;SDS011;19476;51.448;6.674;2023-03-01T00:56:58;6.10;;;3.22;;
33104;SDS011;19476;51.448;6.674;2023-03-01T00:59:24;7.05;;;3.92;;
33104;SDS011;19476;51.448;6.674;2023-03-01T01:01:50;6.10;;;3.50;;
33104;SDS011;19476;51.448;6.674;2023-03-01T01:04:15;5.95;;;3.53;;
33104;SDS011;19476;51.448;6.674;2023-03-01T01:06:42;5.85;;;3.17;;
33104;SDS011;19476;51.448;6.674;2023-03-01T01:09:10;5.80;;;3.50;;
33104;SDS011;19476;51.448;6.674;2023-03-01T01:11:45;5.13;;;3.20;;
33104;SDS011;19476;51.448;6.674;2023-03-01T01:14:15;5.18;;;3.22;;
33104;SDS011;19476;51.448;6.674;2023-03-01T01:16:41;5.38;;;3.03;;
33104;SDS011;19476;51.448;6.674;2023-03-01T01:19:08;5.63;;;3.33;;
33104;SDS011;19476;51.448;6.674;2023-03-01T01:21:35;6.25;;;3.47;;
33104;SDS011;19476;51.448;6.674;2023-03-01T01:24:02;5.72;;;2.92;;
33104;SDS011;19476;51.448;6.674;2023-03-01T01:26:30;6.05;;;3.33;;
33104;SDS011;19476;51.448;6.674;2023-03-01T01:28:58;7.07;;;3.40;;
33104;SDS011;19476;51.448;6.674;2023-03-01T01:31:25;6.10;;;3.58;;
33104;SDS011;19476;51.448;6.674;2023-03-01T01:33:53;6.80;;;3.60;;
33104;SDS011;19476;51.448;6.674;2023-03-01T01:36:19;5.75;;;3.40;;
33104;SDS011;19476;51.448;6.674;2023-03-01T01:38:45;6.95;;;3.92;;
33104;SDS011;19476;51.448;6.674;2023-03-01T01:41:11;6.18;;;3.30;;
33104;SDS011;19476;51.448;6.674;2023-03-01T01:43:45;6.10;;;3.35;;
33104;SDS011;19476;51.448;6.674;2023-03-01T01:46:30;5.72;;;2.97;;
33104;SDS011;19476;51.448;6.674;2023-03-01T01:49:01;5.93;;;3.55;;
33104;SDS011;19476;51.448;6.674;2023-03-01T01:51:31;6.82;;;3.83;;
33104;SDS011;19476;51.448;6.674;2023-03-01T01:54:03;6.50;;;3.58;;
33104;SDS011;19476;51.448;6.674;2023-03-01T01:56:33;7.03;;;3.45;;
33104;SDS011;19476;51.448;6.674;2023-03-01T01:59:01;6.30;;;3.85;;
33104;SDS011;19476;51.448;6.674;2023-03-01T02:01:27;7.00;;;3.28;;
33104;SDS011;19476;51.448;6.674;2023-03-01T02:03:53;5.82;;;3.80;;
33104;SDS011;19476;51.448;6.674;2023-03-01T02:08:55;5.03;;;3.05;;
33104;SDS011;19476;51.448;6.674;2023-03-01T02:13:51;7.00;;;3.92;;
33104;SDS011;19476;51.448;6.674;2023-03-01T02:16:19;5.95;;;2.83;;
33104;SDS011;19476;51.448;6.674;2023-03-01T02:18:45;6.32;;;3.58;;
33104;SDS011;19476;51.448;6.674;2023-03-01T02:21:17;6.78;;;3.85;;
33104;SDS011;19476;51.448;6.674;2023-03-01T02:24:10;6.18;;;3.40;;
33104;SDS011;19476;51.448;6.674;2023-03-01T02:26:51;6.13;;;3.55;;
33104;SDS011;19476;51.448;6.674;2023-03-01T02:29:23;6.38;;;3.50;;
33104;SDS011;19476;51.448;6.674;2023-03-01T02:31:49;7.13;;;3.70;;
33104;SDS011;19476;51.448;6.674;2023-03-01T02:34:19;6.70;;;3.58;;
33104;SDS011;19476;51.448;6.674;2023-03-01T02:36:47;6.00;;;3.90;;
33104;SDS011;19476;51.448;6.674;2023-03-01T02:39:18;7.18;;;3.90;;
33104;SDS011;19476;51.448;6.674;2023-03-01T02:41:52;5.68;;;3.63;;
33104;SDS011;19476;51.448;6.674;2023-03-01T02:44:19;6.03;;;3.22;;
33104;SDS011;19476;51.448;6.674;2023-03-01T02:46:50;6.00;;;3.72;;
33104;SDS011;19476;51.448;6.674;2023-03-01T02:49:18;7.28;;;3.80;;
33104;SDS011;19476;51.448;6.674;2023-03-01T02:57:27;6.65;;;3.72;;
33104;SDS011;19476;51.448;6.674;2023-03-01T02:59:55;6.00;;;3.75;;
33104;SDS011;19476;51.448;6.674;2023-03-01T03:02:25;6.72;;;4.00;;
33104;SDS011;19476;51.448;6.674;2023-03-01T03:07:34;9.25;;;4.40;;
33104;SDS011;19476;51.448;6.674;2023-03-01T03:10:03;5.85;;;3.33;;
33104;SDS011;19476;51.448;6.674;2023-03-01T03:12:30;8.93;;;3.67;;
33104;SDS011;19476;51.448;6.674;2023-03-01T03:14:56;7.28;;;4.07;;
33104;SDS011;19476;51.448;6.674;2023-03-01T03:17:22;7.97;;;4.35;;
33104;SDS011;19476;51.448;6.674;2023-03-01T03:19:48;7.00;;;4.18;;
33104;SDS011;19476;51.448;6.674;2023-03-01T03:22:14;7.32;;;3.50;;
33104;SDS011;19476;51.448;6.674;2023-03-01T03:24:40;7.47;;;3.92;;
33104;SDS011;19476;51.448;6.674;2023-03-01T03:27:06;8.50;;;4.28;;
33104;SDS011;19476;51.448;6.674;2023-03-01T03:29:32;8.10;;;4.35;;
33104;SDS011;19476;51.448;6.674;2023-03-01T03:31:58;7.10;;;4.35;;
33104;SDS011;19476;51.448;6.674;2023-03-01T03:34:24;7.63;;;4.20;;
33104;SDS011;19476;51.448;6.674;2023-03-01T03:36:53;9.23;;;4.80;;
33104;SDS011;19476;51.448;6.674;2023-03-01T03:39:24;8.10;;;4.53;;
33104;SDS011;19476;51.448;6.674;2023-03-01T03:41:52;9.68;;;4.70;;
33104;SDS011;19476;51.448;6.674;2023-03-01T03:44:18;9.32;;;5.00;;
33104;SDS011;19476;51.448;6.674;2023-03-01T03:46:44;7.68;;;4.15;;
33104;SDS011;19476;51.448;6.674;2023-03-01T03:49:09;9.88;;;5.10;;
33104;SDS011;19476;51.448;6.674;2023-03-01T03:51:35;9.40;;;5.07;;
33104;SDS011;19476;51.448;6.674;2023-03-01T03:54:01;9.35;;;4.70;;
33104;SDS011;19476;51.448;6.674;2023-03-01T03:56:27;8.35;;;4.88;;
33104;SDS011;19476;51.448;6.674;2023-03-01T03:58:53;7.57;;;4.50;;
33104;SDS011;19476;51.448;6.674;2023-03-01T04:01:18;8.52;;;4.60;;
33104;SDS011;19476;51.448;6.674;2023-03-01T04:03:44;7.25;;;4.70;;
33104;SDS011;19476;51.448;6.674;2023-03-01T04:06:13;8.32;;;5.22;;
33104;SDS011;19476;51.448;6.674;2023-03-01T04:08:39;6.43;;;3.67;;
33104;SDS011;19476;51.448;6.674;2023-03-01T04:11:06;7.78;;;4.75;;
33104;SDS011;19476;51.448;6.674;2023-03-01T04:13:52;9.73;;;5.25;;
33104;SDS011;19476;51.448;6.674;2023-03-01T04:16:19;7.45;;;4.60;;
33104;SDS011;19476;51.448;6.674;2023-03-01T04:18:45;6.65;;;3.72;;
33104;SDS011;19476;51.448;6.674;2023-03-01T04:21:11;7.32;;;4.65;;
33104;SDS011;19476;51.448;6.674;2023-03-01T04:23:38;7.05;;;3.80;;
33104;SDS011;19476;51.448;6.674;2023-03-01T04:26:05;9.63;;;5.25;;
33104;SDS011;19476;51.448;6.674;2023-03-01T04:28:33;7.30;;;4.55;;
33104;SDS011;19476;51.448;6.674;2023-03-01T04:31:08;7.90;;;4.72;;
33104;SDS011;19476;51.448;6.674;2023-03-01T04:33:41;8.98;;;4.85;;
33104;SDS011;19476;51.448;6.674;2023-03-01T04:36:08;8.38;;;4.93;;
33104;SDS011;19476;51.448;6.674;2023-03-01T04:38:36;8.43;;;4.90;;
33104;SDS011;19476;51.448;6.674;2023-03-01T04:41:07;9.85;;;5.10;;
33104;SDS011;19476;51.448;6.674;2023-03-01T04:43:35;9.52;;;5.00;;
33104;SDS011;19476;51.448;6.674;2023-03-01T04:46:02;7.00;;;4.15;;
33104;SDS011;19476;51.448;6.674;2023-03-01T04:48:30;7.28;;;4.30;;
33104;SDS011;19476;51.448;6.674;2023-03-01T04:50:57;8.90;;;4.80;;
33104;SDS011;19476;51.448;6.674;2023-03-01T04:53:24;7.90;;;4.70;;
33104;SDS011;19476;51.448;6.674;2023-03-01T04:55:50;8.60;;;4.68;;
33104;SDS011;19476;51.448;6.674;2023-03-01T04:58:16;9.70;;;4.82;;
33104;SDS011;19476;51.448;6.674;2023-03-01T05:00:42;7.93;;;4.80;;
33104;SDS011;19476;51.448;6.674;2023-03-01T05:03:08;8.75;;;4.63;;
33104;SDS011;19476;51.448;6.674;2023-03-01T05:05:35;8.15;;;4.70;;
33104;SDS011;19476;51.448;6.674;2023-03-01T05:08:04;9.68;;;5.88;;
33104;SDS011;19476;51.448;6.674;2023-03-01T05:10:32;9.07;;;4.70;;
33104;SDS011;19476;51.448;6.674;2023-03-01T05:13:00;7.70;;;4.78;;
33104;SDS011;19476;51.448;6.674;2023-03-01T05:15:26;9.05;;;5.15;;
33104;SDS011;19476;51.448;6.674;2023-03-01T05:17:55;8.10;;;4.80;;
33104;SDS011;19476;51.448;6.674;2023-03-01T05:20:23;8.20;;;5.13;;
33104;SDS011;19476;51.448;6.674;2023-03-01T05:22:50;8.98;;;4.97;;
33104;SDS011;19476;51.448;6.674;2023-03-01T05:25:19;8.18;;;5.15;;
33104;SDS011;19476;51.448;6.674;2023-03-01T05:27:46;10.07;;;5.28;;
33104;SDS011;19476;51.448;6.674;2023-03-01T05:30:12;8.90;;;4.88;;
33104;SDS011;19476;51.448;6.674;2023-03-01T05:32:42;9.55;;;5.05;;
33104;SDS011;19476;51.448;6.674;2023-03-01T05:35:12;9.23;;;4.85;;
33104;SDS011;19476;51.448;6.674;2023-03-01T05:37:46;8.43;;;4.63;;
33104;SDS011;19476;51.448;6.674;2023-03-01T05:40:20;9.82;;;4.90;;
33104;SDS011;19476;51.448;6.674;2023-03-01T05:42:50;8.52;;;4.50;;
33104;SDS011;19476;51.448;6.674;2023-03-01T05:45:19;8.07;;;4.53;;
33104;SDS011;19476;51.448;6.674;2023-03-01T05:47:45;9.55;;;5.45;;
33104;SDS011;19476;51.448;6.674;2023-03-01T05:50:13;10.32;;;5.43;;
33104;SDS011;19476;51.448;6.674;2023-03-01T05:52:47;8.90;;;5.10;;
33104;SDS011;19476;51.448;6.674;2023-03-01T05:55:21;8.35;;;5.18;;
33104;SDS011;19476;51.448;6.674;2023-03-01T05:57:48;8.80;;;5.35;;
33104;SDS011;19476;51.448;6.674;2023-03-01T06:00:18;9.45;;;6.28;;
33104;SDS011;19476;51.448;6.674;2023-03-01T06:02:47;9.57;;;5.68;;
33104;SDS011;19476;51.448;6.674;2023-03-01T06:05:14;8.38;;;5.72;;
33104;SDS011;19476;51.448;6.674;2023-03-01T06:07:40;9.02;;;5.35;;
33104;SDS011;19476;51.448;6.674;2023-03-01T06:10:07;9.80;;;4.65;;
33104;SDS011;19476;51.448;6.674;2023-03-01T06:12:34;8.75;;;4.80;;
33104;SDS011;19476;51.448;6.674;2023-03-01T06:15:01;7.68;;;4.53;;
33104;SDS011;19476;51.448;6.674;2023-03-01T06:17:32;9.52;;;5.28;;
33104;SDS011;19476;51.448;6.674;2023-03-01T06:20:06;8.30;;;5.13;;
33104;SDS011;19476;51.448;6.674;2023-03-01T06:22:40;8.23;;;4.60;;
33104;SDS011;19476;51.448;6.674;2023-03-01T06:25:07;9.05;;;4.60;;
33104;SDS011;19476;51.448;6.674;2023-03-01T06:27:34;9.30;;;5.35;;
33104;SDS011;19476;51.448;6.674;2023-03-01T06:30:00;9.82;;;5.20;;
33104;SDS011;19476;51.448;6.674;2023-03-01T06:32:26;8.75;;;5.13;;
33104;SDS011;19476;51.448;6.674;2023-03-01T06:34:52;10.05;;;5.20;;
33104;SDS011;19476;51.448;6.674;2023-03-01T06:37:18;10.00;;;5.85;;
33104;SDS011;19476;51.448;6.674;2023-03-01T06:39:43;10.70;;;5.40;;
33104;SDS011;19476;51.448;6.674;2023-03-01T06:42:09;8.88;;;5.20;;
33104;SDS011;19476;51.448;6.674;2023-03-01T06:44:36;10.40;;;5.10;;
33104;SDS011;19476;51.448;6.674;2023-03-01T06:47:02;9.23;;;5.80;;
33104;SDS011;19476;51.448;6.674;2023-03-01T06:49:28;9.45;;;5.35;;
33104;SDS011;19476;51.448;6.674;2023-03-01T06:51:55;9.32;;;5.57;;
33104;SDS011;19476;51.448;6.674;2023-03-01T06:54:21;10.40;;;5.47;;
33104;SDS011;19476;51.448;6.674;2023-03-01T06:56:47;9.75;;;5.47;;
33104;SDS011;19476;51.448;6.674;2023-03-01T06:59:14;9.80;;;5.80;;
33104;SDS011;19476;51.448;6.674;2023-03-01T07:01:41;9.63;;;5.53;;
33104;SDS011;19476;51.448;6.674;2023-03-01T07:04:07;12.50;;;6.20;;
33104;SDS011;19476;51.448;6.674;2023-03-01T07:06:33;10.13;;;5.70;;
33104;SDS011;19476;51.448;6.674;2023-03-01T07:08:58;11.18;;;5.80;;
33104;SDS011;19476;51.448;6.674;2023-03-01T07:11:24;11.23;;;6.22;;
33104;SDS011;19476;51.448;6.674;2023-03-01T07:13:50;11.88;;;7.18;;
33104;SDS011;19476;51.448;6.674;2023-03-01T07:16:16;13.02;;;6.88;;
33104;SDS011;19476;51.448;6.674;2023-03-01T07:18:41;13.68;;;6.50;;
33104;SDS011;19476;51.448;6.674;2023-03-01T07:21:08;10.50;;;5.95;;
33104;SDS011;19476;51.448;6.674;2023-03-01T07:23:36;11.07;;;5.80;;
33104;SDS011;19476;51.448;6.674;2023-03-01T07:26:02;11.30;;;6.40;;
33104;SDS011;19476;51.448;6.674;2023-03-01T07:28:28;10.63;;;6.40;;
33104;SDS011;19476;51.448;6.674;2023-03-01T07:30:58;11.20;;;6.40;;
33104;SDS011;19476;51.448;6.674;2023-03-01T07:33:26;12.40;;;7.03;;
33104;SDS011;19476;51.448;6.674;2023-03-01T07:35:55;11.27;;;6.78;;
33104;SDS011;19476;51.448;6.674;2023-03-01T07:38:22;11.40;;;6.45;;
33104;SDS011;19476;51.448;6.674;2023-03-01T07:40:49;12.90;;;6.60;;
33104;SDS011;19476;51.448;6.674;2023-03-01T07:43:14;12.18;;;6.63;;
33104;SDS011;19476;51.448;6.674;2023-03-01T07:45:40;10.30;;;5.97;;
33104;SDS011;19476;51.448;6.674;2023-03-01T07:48:06;9.45;;;5.60;;
33104;SDS011;19476;51.448;6.674;2023-03-01T07:50:32;10.57;;;6.00;;
33104;SDS011;19476;51.448;6.674;2023-03-01T07:52:57;11.35;;;6.47;;
33104;SDS011;19476;51.448;6.674;2023-03-01T07:55:23;11.20;;;6.22;;
33104;SDS011;19476;51.448;6.674;2023-03-01T07:57:49;10.88;;;6.00;;
33104;SDS011;19476;51.448;6.674;2023-03-01T08:00:15;10.30;;;6.38;;
33104;SDS011;19476;51.448;6.674;2023-03-01T08:02:41;10.73;;;5.88;;
33104;SDS011;19476;51.448;6.674;2023-03-01T08:05:07;10.25;;;6.13;;
33104;SDS011;19476;51.448;6.674;2023-03-01T08:07:34;9.98;;;5.97;;
33104;SDS011;19476;51.448;6.674;2023-03-01T08:10:00;9.35;;;5.78;;
33104;SDS011;19476;51.448;6.674;2023-03-01T08:12:26;9.02;;;5.15;;
33104;SDS011;19476;51.448;6.674;2023-03-01T08:14:53;9.40;;;5.68;;
33104;SDS011;19476;51.448;6.674;2023-03-01T08:17:19;11.38;;;6.20;;
33104;SDS011;19476;51.448;6.674;2023-03-01T08:19:44;11.13;;;6.00;;
33104;SDS011;19476;51.448;6.674;2023-03-01T08:22:10;9.93;;;6.18;;
33104;SDS011;19476;51.448;6.674;2023-03-01T08:24:36;10.50;;;5.78;;
33104;SDS011;19476;51.448;6.674;2023-03-01T08:27:03;9.43;;;5.72;;
33104;SDS011;19476;51.448;6.674;2023-03-01T08:29:32;7.57;;;4.72;;
33104;SDS011;19476;51.448;6.674;2023-03-01T08:31:58;12.88;;;6.07;;
33104;SDS011;19476;51.448;6.674;2023-03-01T08:34:24;13.80;;;6.32;;
33104;SDS011;19476;51.448;6.674;2023-03-01T08:36:50;8.82;;;4.88;;
33104;SDS011;19476;51.448;6.674;2023-03-01T08:39:18;8.75;;;5.43;;
33104;SDS011;19476;51.448;6.674;2023-03-01T08:41:45;11.70;;;5.32;;
33104;SDS011;19476;51.448;6.674;2023-03-01T08:44:12;16.23;;;6.78;;
33104;SDS011;19476;51.448;6.674;2023-03-01T08:46:43;9.70;;;5.18;;
33104;SDS011;19476;51.448;6.674;2023-03-01T08:49:14;10.68;;;5.20;;
33104;SDS011;19476;51.448;6.674;2023-03-01T08:51:44;9.95;;;5.32;;
33104;SDS011;19476;51.448;6.674;2023-03-01T08:54:18;10.15;;;4.95;;
33104;SDS011;19476;51.448;6.674;2023-03-01T08:56:45;10.25;;;4.32;;
33104;SDS011;19476;51.448;6.674;2023-03-01T08:59:11;7.22;;;4.70;;
33104;SDS011;19476;51.448;6.674;2023-03-01T09:01:38;7.55;;;4.68;;
33104;SDS011;19476;51.448;6.674;2023-03-01T09:04:05;8.48;;;4.80;;
33104;SDS011;19476;51.448;6.674;2023-03-01T09:06:32;9.60;;;5.30;;
33104;SDS011;19476;51.448;6.674;2023-03-01T09:08:58;9.25;;;4.82;;
33104;SDS011;19476;51.448;6.674;2023-03-01T09:11:25;9.88;;;4.97;;
33104;SDS011;19476;51.448;6.674;2023-03-01T09:13:51;9.90;;;4.93;;
33104;SDS011;19476;51.448;6.674;2023-03-01T09:16:18;8.07;;;4.43;;
33104;SDS011;19476;51.448;6.674;2023-03-01T09:18:48;6.70;;;4.22;;
33104;SDS011;19476;51.448;6.674;2023-03-01T09:21:19;7.80;;;4.53;;
33104;SDS011;19476;51.448;6.674;2023-03-01T09:23:46;8.73;;;4.18;;
33104;SDS011;19476;51.448;6.674;2023-03-01T09:26:14;7.15;;;4.13;;
33104;SDS011;19476;51.448;6.674;2023-03-01T09:28:44;8.88;;;4.43;;
33104;SDS011;19476;51.448;6.674;2023-03-01T09:31:10;9.68;;;4.70;;
33104;SDS011;19476;51.448;6.674;2023-03-01T09:33:40;7.28;;;4.30;;
33104;SDS011;19476;51.448;6.674;2023-03-01T09:36:07;8.98;;;3.92;;
33104;SDS011;19476;51.448;6.674;2023-03-01T09:38:37;9.32;;;5.10;;
33104;SDS011;19476;51.448;6.674;2023-03-01T09:41:08;7.93;;;4.57;;
33104;SDS011;19476;51.448;6.674;2023-03-01T09:43:46;7.75;;;4.53;;
33104;SDS011;19476;51.448;6.674;2023-03-01T09:46:19;8.05;;;4.88;;
33104;SDS011;19476;51.448;6.674;2023-03-01T09:51:26;8.10;;;4.70;;
33104;SDS011;19476;51.448;6.674;2023-03-01T09:53:57;10.57;;;4.90;;
33104;SDS011;19476;51.448;6.674;2023-03-01T09:59:17;6.25;;;4.05;;
33104;SDS011;19476;51.448;6.674;2023-03-01T10:02:11;8.40;;;4.85;;
33104;SDS011;19476;51.448;6.674;2023-03-01T10:04:51;8.68;;;4.90;;
33104;SDS011;19476;51.448;6.674;2023-03-01T10:07:25;7.70;;;5.05;;
33104;SDS011;19476;51.448;6.674;2023-03-01T10:10:07;8.77;;;4.20;;
33104;SDS011;19476;51.448;6.674;2023-03-01T10:12:35;7.82;;;4.38;;
33104;SDS011;19476;51.448;6.674;2023-03-01T10:15:22;10.40;;;5.13;;
33104;SDS011;19476;51.448;6.674;2023-03-01T10:18:01;8.60;;;4.97;;
33104;SDS011;19476;51.448;6.674;2023-03-01T10:23:29;8.00;;;4.22;;
33104;SDS011;19476;51.448;6.674;2023-03-01T10:29:04;7.78;;;3.88;;
33104;SDS011;19476;51.448;6.674;2023-03-01T10:31:37;7.20;;;4.10;;
33104;SDS011;19476;51.448;6.674;2023-03-01T10:34:10;7.05;;;4.03;;
33104;SDS011;19476;51.448;6.674;2023-03-01T10:36:41;6.47;;;3.78;;
33104;SDS011;19476;51.448;6.674;2023-03-01T10:39:13;8.02;;;4.30;;
33104;SDS011;19476;51.448;6.674;2023-03-01T10:41:57;8.70;;;4.15;;
33104;SDS011;19476;51.448;6.674;2023-03-01T10:44:42;7.07;;;3.90;;
33104;SDS011;19476;51.448;6.674;2023-03-01T10:47:15;6.55;;;3.90;;
33104;SDS011;19476;51.448;6.674;2023-03-01T10:49:52;7.00;;;4.10;;
33104;SDS011;19476;51.448;6.674;2023-03-01T10:52:20;7.35;;;4.22;;
33104;SDS011;19476;51.448;6.674;2023-03-01T10:54:52;5.28;;;3.28;;
33104;SDS011;19476;51.448;6.674;2023-03-01T10:57:34;6.97;;;4.20;;
33104;SDS011;19476;51.448;6.674;2023-03-01T11:03:33;7.57;;;4.03;;
33104;SDS011;19476;51.448;6.674;2023-03-01T11:08:15;7.63;;;3.75;;
33104;SDS011;19476;51.448;6.674;2023-03-01T11:13:50;6.57;;;3.60;;
33104;SDS011;19476;51.448;6.674;2023-03-01T11:16:32;9.68;;;4.18;;
33104;SDS011;19476;51.448;6.674;2023-03-01T11:21:46;6.82;;;3.67;;
33104;SDS011;19476;51.448;6.674;2023-03-01T11:24:18;8.65;;;4.15;;
33104;SDS011;19476;51.448;6.674;2023-03-01T11:26:50;6.03;;;3.20;;
33104;SDS011;19476;51.448;6.674;2023-03-01T11:29:30;8.00;;;4.13;;
33104;SDS011;19476;51.448;6.674;2023-03-01T11:32:03;6.13;;;3.40;;
33104;SDS011;19476;51.448;6.674;2023-03-01T11:40:23;6.53;;;4.03;;
33104;SDS011;19476;51.448;6.674;2023-03-01T11:45:23;8.75;;;3.35;;
33104;SDS011;19476;51.448;6.674;2023-03-01T11:50:47;7.00;;;3.10;;
33104;SDS011;19476;51.448;6.674;2023-03-01T11:56:10;7.13;;;3.83;;
33104;SDS011;19476;51.448;6.674;2023-03-01T12:04:40;7.05;;;3.15;;
33104;SDS011;19476;51.448;6.674;2023-03-01T12:12:58;7.68;;;3.40;;
33104;SDS011;19476;51.448;6.674;2023-03-01T12:15:57;6.55;;;3.33;;
33104;SDS011;19476;51.448;6.674;2023-03-01T12:18:48;6.15;;;3.40;;
33104;SDS011;19476;51.448;6.674;2023-03-01T12:26:44;6.47;;;3.50;;
33104;SDS011;19476;51.448;6.674;2023-03-01T12:29:22;6.80;;;3.35;;
33104;SDS011;19476;51.448;6.674;2023-03-01T12:34:42;8.45;;;4.03;;
33104;SDS011;19476;51.448;6.674;2023-03-01T12:37:27;9.32;;;3.72;;
33104;SDS011;19476;51.448;6.674;2023-03-01T12:40:21;8.02;;;3.50;;
33104;SDS011;19476;51.448;6.674;2023-03-01T12:43:15;5.43;;;3.50;;
33104;SDS011;19476;51.448;6.674;2023-03-01T12:51:26;5.82;;;3.25;;
33104;SDS011;19476;51.448;6.674;2023-03-01T12:53:55;5.68;;;3.53;;
33104;SDS011;19476;51.448;6.674;2023-03-01T12:56:24;5.05;;;3.35;;
33104;SDS011;19476;51.448;6.674;2023-03-01T13:02:31;9.05;;;3.70;;
33104;SDS011;19476;51.448;6.674;2023-03-01T13:08:48;7.90;;;3.58;;
33104;SDS011;19476;51.448;6.674;2023-03-01T13:11:23;6.50;;;3.55;;
33104;SDS011;19476;51.448;6.674;2023-03-01T13:13:49;6.53;;;3.35;;
33104;SDS011;19476;51.448;6.674;2023-03-01T13:21:48;6.13;;;3.63;;
33104;SDS011;19476;51.448;6.674;2023-03-01T13:24:33;6.30;;;3.78;;
33104;SDS011;19476;51.448;6.674;2023-03-01T13:29:51;6.55;;;3.67;;
33104;SDS011;19476;51.448;6.674;2023-03-01T13:32:28;6.97;;;3.60;;
33104;SDS011;19476;51.448;6.674;2023-03-01T13:35:00;5.40;;;3.10;;
33104;SDS011;19476;51.448;6.674;2023-03-01T13:37:35;5.80;;;3.13;;
33104;SDS011;19476;51.448;6.674;2023-03-01T13:42:49;5.85;;;2.90;;
33104;SDS011;19476;51.448;6.674;2023-03-01T13:45:21;5.18;;;2.88;;
33104;SDS011;19476;51.448;6.674;2023-03-01T13:48:09;6.18;;;3.47;;
33104;SDS011;19476;51.448;6.674;2023-03-01T13:50:58;5.85;;;3.40;;
33104;SDS011;19476;51.448;6.674;2023-03-01T13:53:27;6.40;;;3.17;;
33104;SDS011;19476;51.448;6.674;2023-03-01T13:59:04;7.97;;;3.67;;
33104;SDS011;19476;51.448;6.674;2023-03-01T14:01:38;8.32;;;4.25;;
33104;SDS011;19476;51.448;6.674;2023-03-01T14:09:52;7.93;;;3.58;;
33104;SDS011;19476;51.448;6.674;2023-03-01T14:20:30;6.88;;;4.13;;
33104;SDS011;19476;51.448;6.674;2023-03-01T14:23:15;7.57;;;3.88;;
33104;SDS011;19476;51.448;6.674;2023-03-01T14:25:49;7.30;;;3.85;;
33104;SDS011;19476;51.448;6.674;2023-03-01T14:28:27;8.10;;;4.22;;
33104;SDS011;19476;51.448;6.674;2023-03-01T14:30:58;6.72;;;3.38;;
33104;SDS011;19476;51.448;6.674;2023-03-01T14:33:29;7.43;;;3.70;;
33104;SDS011;19476;51.448;6.674;2023-03-01T14:36:08;6.90;;;3.58;;
33104;SDS011;19476;51.448;6.674;2023-03-01T14:38:40;6.38;;;3.30;;
33104;SDS011;19476;51.448;6.674;2023-03-01T14:43:44;6.82;;;3.90;;
33104;SDS011;19476;51.448;6.674;2023-03-01T14:46:24;7.63;;;4.28;;
33104;SDS011;19476;51.448;6.674;2023-03-01T14:48:54;6.13;;;3.60;;
33104;SDS011;19476;51.448;6.674;2023-03-01T14:51:23;6.38;;;3.38;;
33104;SDS011;19476;51.448;6.674;2023-03-01T14:53:49;6.47;;;3.83;;
33104;SDS011;19476;51.448;6.674;2023-03-01T14:56:16;7.47;;;3.58;;
33104;SDS011;19476;51.448;6.674;2023-03-01T14:58:43;7.93;;;4.80;;
33104;SDS011;19476;51.448;6.674;2023-03-01T15:01:10;10.90;;;4.47;;
33104;SDS011;19476;51.448;6.674;2023-03-01T15:03:43;7.22;;;4.07;;
33104;SDS011;19476;51.448;6.674;2023-03-01T15:06:14;7.00;;;4.03;;
33104;SDS011;19476;51.448;6.674;2023-03-01T15:08:47;6.68;;;3.92;;
33104;SDS011;19476;51.448;6.674;2023-03-01T15:11:27;5.63;;;3.40;;
33104;SDS011;19476;51.448;6.674;2023-03-01T15:13:54;6.18;;;3.38;;
33104;SDS011;19476;51.448;6.674;2023-03-01T15:16:22;6.53;;;3.83;;
33104;SDS011;19476;51.448;6.674;2023-03-01T15:18:51;7.40;;;3.60;;
33104;SDS011;19476;51.448;6.674;2023-03-01T15:21:23;6.88;;;3.65;;
33104;SDS011;19476;51.448;6.674;2023-03-01T15:23:57;7.15;;;3.70;;
33104;SDS011;19476;51.448;6.674;2023-03-01T15:26:30;7.32;;;3.67;;
33104;SDS011;19476;51.448;6.674;2023-03-01T15:32:27;6.18;;;3.55;;
33104;SDS011;19476;51.448;6.674;2023-03-01T15:38:04;6.68;;;3.78;;
33104;SDS011;19476;51.448;6.674;2023-03-01T15:40:50;8.85;;;4.45;;
33104;SDS011;19476;51.448;6.674;2023-03-01T15:46:02;7.13;;;4.22;;
33104;SDS011;19476;51.448;6.674;2023-03-01T15:48:29;7.75;;;3.80;;
33104;SDS011;19476;51.448;6.674;2023-03-01T15:50:56;6.60;;;3.47;;
33104;SDS011;19476;51.448;6.674;2023-03-01T15:53:24;5.78;;;3.50;;
33104;SDS011;19476;51.448;6.674;2023-03-01T15:55:51;7.13;;;3.60;;
33104;SDS011;19476;51.448;6.674;2023-03-01T15:58:21;6.43;;;3.58;;
33104;SDS011;19476;51.448;6.674;2023-03-01T16:00:49;5.65;;;3.20;;
33104;SDS011;19476;51.448;6.674;2023-03-01T16:03:21;6.53;;;3.05;;
33104;SDS011;19476;51.448;6.674;2023-03-01T16:05:48;5.57;;;3.30;;
33104;SDS011;19476;51.448;6.674;2023-03-01T16:08:15;9.20;;;3.78;;
33104;SDS011;19476;51.448;6.674;2023-03-01T16:10:42;6.75;;;3.53;;
33104;SDS011;19476;51.448;6.674;2023-03-01T16:13:13;6.70;;;3.83;;
33104;SDS011;19476;51.448;6.674;2023-03-01T16:15:39;6.60;;;3.63;;
33104;SDS011;19476;51.448;6.674;2023-03-01T16:18:05;7.82;;;3.58;;
33104;SDS011;19476;51.448;6.674;2023-03-01T16:20:32;7.03;;;3.60;;
33104;SDS011;19476;51.448;6.674;2023-03-01T16:23:03;6.05;;;3.33;;
33104;SDS011;19476;51.448;6.674;2023-03-01T16:25:32;6.85;;;3.42;;
33104;SDS011;19476;51.448;6.674;2023-03-01T16:27:58;5.60;;;3.10;;
33104;SDS011;19476;51.448;6.674;2023-03-01T16:30:29;5.93;;;3.30;;
33104;SDS011;19476;51.448;6.674;2023-03-01T16:32:55;6.93;;;3.83;;
33104;SDS011;19476;51.448;6.674;2023-03-01T16:35:20;10.02;;;3.88;;
33104;SDS011;19476;51.448;6.674;2023-03-01T16:37:47;7.53;;;3.65;;
33104;SDS011;19476;51.448;6.674;2023-03-01T16:40:18;7.50;;;4.03;;
33104;SDS011;19476;51.448;6.674;2023-03-01T16:42:50;15.52;;;4.40;;
33104;SDS011;19476;51.448;6.674;2023-03-01T16:45:17;7.88;;;3.97;;
33104;SDS011;19476;51.448;6.674;2023-03-01T16:47:44;9.45;;;3.95;;
33104;SDS011;19476;51.448;6.674;2023-03-01T16:50:10;7.43;;;3.72;;
33104;SDS011;19476;51.448;6.674;2023-03-01T16:52:36;6.22;;;3.65;;
33104;SDS011;19476;51.448;6.674;2023-03-01T16:55:04;7.03;;;3.60;;
33104;SDS011;19476;51.448;6.674;2023-03-01T16:57:35;6.72;;;3.85;;
33104;SDS011;19476;51.448;6.674;2023-03-01T17:00:03;7.65;;;3.95;;
33104;SDS011;19476;51.448;6.674;2023-03-01T17:04:58;8.68;;;4.00;;